Time;durP1;ratioP1;P1;durP2;ratioP2;P2;SDS_P1;SDS_P2;PMS_P1;PMS_P2;Temp;Humidity;BMP_temperature;BMP_pressure;BME280_temperature;BME280_humidity;BME280_pressure;Samples;Min_cycle;Max_cycle;Signal;HPM_P1;HPM_P2
2022/03/24 00:00:39;;;;;;;;;;;;;;;;;;6085563;23;19996;-87
2022/03/24 00:03:07;;;;;;;;;;;;;;;;;;6061944;23;19928;-88
2022/03/24 00:05:54;;;;;;;;;;;;;;;;;;6087351;23;20129;-87
2022/03/24 00:08:34;;;;;;;;;;;;;;;;;;6112219;23;19960;-88
2022/03/24 00:11:01;;;;;;;;;;;;;;;;;;6088028;23;19917;-88
2022/03/24 00:13:28;;;;;;;;;;;;;;;;;;6087961;23;19921;-88
2022/03/24 00:15:56;;;;;;;;;;;;;;;;;;6088968;23;19921;-88
2022/03/24 00:18:23;;;;;;;;;;;;;;;;;;6111621;23;19928;-88
2022/03/24 00:20:49;;;;;;;;;;;;;;;;;;6088217;23;19986;-89
2022/03/24 00:23:15;;;;;;;;;;;;;;;;;;6087007;23;19927;-89
2022/03/24 00:25:45;;;;;;;;;;;;;;;;;;6112097;23;19937;-88
2022/03/24 00:28:11;;;;;;;;;;;;;;;;;;6110763;23;19921;-88
2022/03/24 00:30:44;;;;;;;;;;;;;;;;;;6106642;23;19931;-89
2022/03/24 00:33:12;;;;;;;;;;;;;;;;;;6146592;23;19920;-89
2022/03/24 00:35:39;;;;;;;;;;;;;;;;;;6147189;23;19917;-88
2022/03/24 00:38:21;;;;;;;;;;;;;;;;;;6111864;23;19920;-88
2022/03/24 00:40:49;;;;;;;;;;;;;;;;;;6111837;23;20235;-88
2022/03/24 00:43:17;;;;;;;;;;;;;;;;;;6111554;23;19949;-88
2022/03/24 00:45:47;;;;;;;;;;;;;;;;;;6110934;23;19924;-89
2022/03/24 00:48:14;;;;;;;;;;;;;;;;;;6110688;23;20020;-89
2022/03/24 00:50:41;;;;;;;;;;;;;;;;;;6114676;23;19993;-88
2022/03/24 00:53:08;;;;;;;;;;;;;;;;;;6113963;23;19928;-88
2022/03/24 00:55:43;;;;;;;;;;;;;;;;;;6083626;23;19920;-89
2022/03/24 00:58:13;;;;;;;;;;;;;;;;;;6086237;23;19925;-88
2022/03/24 01:00:43;;;;;;;;;;;;;;;;;;6085365;23;19921;-88
2022/03/24 01:03:12;;;;;;;;;;;;;;;;;;6086049;23;20472;-88
2022/03/24 01:05:43;;;;;;;;;;;;;;;;;;6087136;23;19964;-88
2022/03/24 01:08:10;;;;;;;;;;;;;;;;;;6085527;23;20264;-88
2022/03/24 01:10:37;;;;;;;;;;;;;;;;;;6094712;23;19927;-88
2022/03/24 01:13:05;;;;;;;;;;;;;;;;;;6110203;23;19996;-88
2022/03/24 01:15:31;;;;;;;;;;;;;;;;;;6117795;23;19921;-88
2022/03/24 01:17:59;;;;;;;;;;;;;;;;;;6119106;23;19943;-88
2022/03/24 01:20:27;;;;;;;;;;;;;;;;;;6119731;23;19920;-88
2022/03/24 01:22:54;;;;;;;;;;;;;;;;;;6095653;23;19916;-87
2022/03/24 01:25:23;;;;;;;;;;;;;;;;;;6121551;23;20015;-88
2022/03/24 01:27:51;;;;;;;;;;;;;;;;;;6122989;23;19952;-88
2022/03/24 01:30:20;;;;;;;;;;;;;;;;;;6123578;23;19916;-88
2022/03/24 01:32:50;;;;;;;;;;;;;;;;;;6122448;23;19935;-89
2022/03/24 01:35:18;;;;;;;;;;;;;;;;;;6120842;23;19924;-89
2022/03/24 01:37:44;;;;;;;;;;;;;;;;;;6121171;23;19947;-88
2022/03/24 01:40:17;;;;;;;;;;;;;;;;;;6119789;23;20391;-88
2022/03/24 01:42:43;;;;;;;;;;;;;;;;;;6118456;23;20626;-89
2022/03/24 01:45:10;;;;;;;;;;;;;;;;;;6121531;23;19927;-88
2022/03/24 01:47:52;;;;;;;;;;;;;;;;;;6086817;23;19925;-89
2022/03/24 01:50:19;;;;;;;;;;;;;;;;;;6063591;23;20387;-88
2022/03/24 01:52:47;;;;;;;;;;;;;;;;;;6063830;23;19972;-89
2022/03/24 01:55:20;;;;;;;;;;;;;;;;;;6086014;23;19921;-88
2022/03/24 01:57:47;;;;;;;;;;;;;;;;;;6064666;23;19924;-89
2022/03/24 02:00:14;;;;;;;;;;;;;;;;;;6089394;23;19920;-89
2022/03/24 02:02:42;;;;;;;;;;;;;;;;;;6089659;23;20080;-88
2022/03/24 02:05:08;;;;;;;;;;;;;;;;;;6064983;23;20052;-89
2022/03/24 02:07:35;;;;;;;;;;;;;;;;;;6089231;23;20007;-88
2022/03/24 02:10:02;;;;;;;;;;;;;;;;;;6065551;23;19945;-89
2022/03/24 02:12:29;;;;;;;;;;;;;;;;;;6066824;23;19921;-89
2022/03/24 02:14:58;;;;;;;;;;;;;;;;;;6067378;23;19924;-89
2022/03/24 02:17:30;;;;;;;;;;;;;;;;;;6066193;23;19931;-88
2022/03/24 02:20:01;;;;;;;;;;;;;;;;;;6174132;23;19927;-89
2022/03/24 02:22:44;;;;;;;;;;;;;;;;;;6176217;23;20392;-89
2022/03/24 02:25:10;;;;;;;;;;;;;;;;;;6173666;23;19920;-89
2022/03/24 02:27:36;;;;;;;;;;;;;;;;;;6174316;23;19932;-88
2022/03/24 02:30:05;;;;;;;;;;;;;;;;;;6174049;23;19958;-88
2022/03/24 02:32:32;;;;;;;;;;;;;;;;;;6173230;23;19920;-89
2022/03/24 02:34:58;;;;;;;;;;;;;;;;;;6174979;23;19947;-88
2022/03/24 02:37:25;;;;;;;;;;;;;;;;;;6173073;23;19920;-88
2022/03/24 02:39:52;;;;;;;;;;;;;;;;;;6175535;23;19920;-88
2022/03/24 02:42:20;;;;;;;;;;;;;;;;;;6173788;23;19920;-88
2022/03/24 02:44:48;;;;;;;;;;;;;;;;;;6173032;23;19916;-88
2022/03/24 02:47:16;;;;;;;;;;;;;;;;;;6173172;23;20047;-88
2022/03/24 02:50:01;;;;;;;;;;;;;;;;;;6162764;23;19971;-89
2022/03/24 02:52:27;;;;;;;;;;;;;;;;;;6120090;23;19916;-89
2022/03/24 02:54:55;;;;;;;;;;;;;;;;;;6117357;23;19943;-89
2022/03/24 02:57:22;;;;;;;;;;;;;;;;;;6116890;23;19920;-89
2022/03/24 02:59:50;;;;;;;;;;;;;;;;;;6137412;23;19936;-89
2022/03/24 03:02:18;;;;;;;;;;;;;;;;;;6117481;23;19920;-88
2022/03/24 03:04:45;;;;;;;;;;;;;;;;;;6117394;23;19927;-88
2022/03/24 03:07:13;;;;;;;;;;;;;;;;;;6116151;23;20007;-89
2022/03/24 03:09:42;;;;;;;;;;;;;;;;;;6142423;23;20016;-89
2022/03/24 03:12:12;;;;;;;;;;;;;;;;;;6120528;23;19916;-89
2022/03/24 03:14:42;;;;;;;;;;;;;;;;;;6120000;23;19924;-89
2022/03/24 03:17:09;;;;;;;;;;;;;;;;;;6120129;23;19923;-89
2022/03/24 03:19:39;;;;;;;;;;;;;;;;;;6122211;23;20227;-89
2022/03/24 03:22:16;;;;;;;;;;;;;;;;;;6150923;23;20313;-89
2022/03/24 03:24:46;;;;;;;;;;;;;;;;;;6178803;23;19976;-88
2022/03/24 03:27:13;;;;;;;;;;;;;;;;;;6125642;23;19926;-89
2022/03/24 03:29:41;;;;;;;;;;;;;;;;;;6148144;23;19966;-89
2022/03/24 03:32:09;;;;;;;;;;;;;;;;;;6148852;23;19948;-88
2022/03/24 03:34:38;;;;;;;;;;;;;;;;;;6150037;23;20377;-89
2022/03/24 03:37:05;;;;;;;;;;;;;;;;;;6151081;23;19924;-89
2022/03/24 03:39:33;;;;;;;;;;;;;;;;;;6151425;23;19995;-89
2022/03/24 03:41:58;;;;;;;;;;;;;;;;;;6149964;23;19946;-89
2022/03/24 03:44:26;;;;;;;;;;;;;;;;;;6124749;23;20667;-90
2022/03/24 03:46:53;;;;;;;;;;;;;;;;;;6148826;23;19920;-89
2022/03/24 03:49:21;;;;;;;;;;;;;;;;;;6147402;23;20407;-89
2022/03/24 03:51:47;;;;;;;;;;;;;;;;;;6174798;23;19974;-89
2022/03/24 03:54:15;;;;;;;;;;;;;;;;;;6148035;23;19924;-89
2022/03/24 03:56:42;;;;;;;;;;;;;;;;;;6147799;23;19916;-90
2022/03/24 03:59:12;;;;;;;;;;;;;;;;;;6158019;23;19931;-89
2022/03/24 04:01:40;;;;;;;;;;;;;;;;;;6173434;23;19920;-90
2022/03/24 04:04:12;;;;;;;;;;;;;;;;;;6171602;23;19962;-90
2022/03/24 04:06:40;;;;;;;;;;;;;;;;;;6174335;23;19924;-90
2022/03/24 04:09:07;;;;;;;;;;;;;;;;;;6172501;23;19931;-89
2022/03/24 04:11:35;;;;;;;;;;;;;;;;;;6172947;23;20611;-89
2022/03/24 04:14:03;;;;;;;;;;;;;;;;;;6172234;23;20657;-89
2022/03/24 04:16:31;;;;;;;;;;;;;;;;;;6173529;23;19991;-89
2022/03/24 04:18:58;;;;;;;;;;;;;;;;;;6172407;23;19920;-88
2022/03/24 04:21:25;;;;;;;;;;;;;;;;;;6172674;23;19927;-89
2022/03/24 04:23:53;;;;;;;;;;;;;;;;;;6173809;23;20296;-90
2022/03/24 04:26:20;;;;;;;;;;;;;;;;;;6173039;23;19923;-89
2022/03/24 04:28:47;;;;;;;;;;;;;;;;;;6172652;23;19927;-89
2022/03/24 04:31:16;;;;;;;;;;;;;;;;;;6174317;23;19920;-88
2022/03/24 04:33:44;;;;;;;;;;;;;;;;;;6172833;23;19995;-89
2022/03/24 04:36:10;;;;;;;;;;;;;;;;;;6171226;23;20285;-89
2022/03/24 04:38:38;;;;;;;;;;;;;;;;;;6172162;23;20532;-89
2022/03/24 04:41:15;;;;;;;;;;;;;;;;;;6174711;23;20519;-89
2022/03/24 04:43:42;;;;;;;;;;;;;;;;;;6176154;23;19924;-89
2022/03/24 04:46:09;;;;;;;;;;;;;;;;;;6175221;23;20548;-89
2022/03/24 04:48:40;;;;;;;;;;;;;;;;;;6175576;23;19931;-89
2022/03/24 04:51:07;;;;;;;;;;;;;;;;;;6173060;23;19963;-89
2022/03/24 04:53:33;;;;;;;;;;;;;;;;;;6172719;23;19926;-89
2022/03/24 04:55:59;;;;;;;;;;;;;;;;;;6172972;23;19920;-89
2022/03/24 04:58:32;;;;;;;;;;;;;;;;;;6171652;23;19982;-89
2022/03/24 05:00:58;;;;;;;;;;;;;;;;;;6172204;23;19921;-89
2022/03/24 05:03:24;;;;;;;;;;;;;;;;;;6171355;23;19963;-89
2022/03/24 05:06:10;;;;;;;;;;;;;;;;;;6194532;23;19932;-88
2022/03/24 05:08:37;;;;;;;;;;;;;;;;;;6171789;23;19924;-88
2022/03/24 05:11:24;;;;;;;;;;;;;;;;;;6195025;23;20360;-89
2022/03/24 05:13:51;;;;;;;;;;;;;;;;;;6171790;23;20233;-88
2022/03/24 05:16:18;;;;;;;;;;;;;;;;;;6171989;23;20294;-89
2022/03/24 05:18:46;;;;;;;;;;;;;;;;;;6174925;23;19924;-89
2022/03/24 05:21:13;;;;;;;;;;;;;;;;;;6173116;23;19920;-90
2022/03/24 05:23:41;;;;;;;;;;;;;;;;;;6172742;23;19927;-89
2022/03/24 05:26:08;;;;;;;;;;;;;;;;;;6175457;23;19916;-89
2022/03/24 05:28:35;;;;;;;;;;;;;;;;;;6175535;23;20360;-89
2022/03/24 05:31:03;;;;;;;;;;;;;;;;;;6175260;23;19921;-89
2022/03/24 05:33:30;;;;;;;;;;;;;;;;;;6175067;23;19920;-89
2022/03/24 05:35:57;;;;;;;;;;;;;;;;;;6175818;23;19916;-90
2022/03/24 05:38:24;;;;;;;;;;;;;;;;;;6175374;23;19951;-89
2022/03/24 05:40:51;;;;;;;;;;;;;;;;;;6174517;23;19951;-88
2022/03/24 05:43:19;;;;;;;;;;;;;;;;;;6199779;23;19987;-88
2022/03/24 05:45:46;;;;;;;;;;;;;;;;;;6175225;23;20258;-89
2022/03/24 05:48:13;;;;;;;;;;;;;;;;;;6174745;23;19920;-89
2022/03/24 05:50:40;;;;;;;;;;;;;;;;;;6176299;23;19994;-89
2022/03/24 05:53:08;;;;;;;;;;;;;;;;;;6175516;23;20011;-89
2022/03/24 05:55:41;;;;;;;;;;;;;;;;;;6174442;23;19927;-90
2022/03/24 05:58:08;;;;;;;;;;;;;;;;;;6172739;23;19927;-89
2022/03/24 06:00:36;;;;;;;;;;;;;;;;;;6171508;23;19931;-89
2022/03/24 06:03:19;;;;;;;;;;;;;;;;;;6173917;23;19987;-89
2022/03/24 06:05:48;;;;;;;;;;;;;;;;;;6173131;23;19995;-89
2022/03/24 06:08:14;;;;;;;;;;;;;;;;;;6113300;23;19933;-89
2022/03/24 06:10:42;;;;;;;;;;;;;;;;;;6087632;23;19921;-90
2022/03/24 06:13:18;;;;;;;;;;;;;;;;;;6105969;23;19968;-89
2022/03/24 06:15:46;;;;;;;;;;;;;;;;;;6090701;23;19973;-90
2022/03/24 06:18:13;;;;;;;;;;;;;;;;;;6088964;23;20309;-90
2022/03/24 06:20:59;;;;;;;;;;;;;;;;;;6105029;23;19935;-89
2022/03/24 06:23:26;;;;;;;;;;;;;;;;;;6080839;23;19920;-91
2022/03/24 06:25:53;;;;;;;;;;;;;;;;;;6086485;23;19976;-90
2022/03/24 06:28:20;;;;;;;;;;;;;;;;;;6090236;23;20182;-90
2022/03/24 06:30:48;;;;;;;;;;;;;;;;;;6089572;23;19921;-90
2022/03/24 06:33:18;;;;;;;;;;;;;;;;;;6112829;23;19921;-89
2022/03/24 06:35:45;;;;;;;;;;;;;;;;;;6089232;23;19925;-89
2022/03/24 06:38:12;;;;;;;;;;;;;;;;;;6093640;23;19960;-89
2022/03/24 06:40:39;;;;;;;;;;;;;;;;;;6174466;23;20245;-90
2022/03/24 06:43:22;;;;;;;;;;;;;;;;;;6172875;23;20272;-89
2022/03/24 06:45:50;;;;;;;;;;;;;;;;;;6125395;23;19927;-90
2022/03/24 06:48:32;;;;;;;;;;;;;;;;;;6174615;23;19968;-89
2022/03/24 06:51:00;;;;;;;;;;;;;;;;;;6126760;23;19924;-89
2022/03/24 06:53:27;;;;;;;;;;;;;;;;;;6124783;23;19924;-89
2022/03/24 06:55:54;;;;;;;;;;;;;;;;;;6150886;23;20273;-89
2022/03/24 06:58:26;;;;;;;;;;;;;;;;;;6174986;23;19921;-89
2022/03/24 07:00:53;;;;;;;;;;;;;;;;;;6149360;23;19928;-89
2022/03/24 07:03:21;;;;;;;;;;;;;;;;;;6149023;23;19948;-90
2022/03/24 07:05:48;;;;;;;;;;;;;;;;;;6148685;23;19920;-89
2022/03/24 07:08:14;;;;;;;;;;;;;;;;;;6173413;23;19927;-89
2022/03/24 07:10:41;;;;;;;;;;;;;;;;;;6125082;23;19988;-89
2022/03/24 07:13:09;;;;;;;;;;;;;;;;;;6148545;23;19921;-89
2022/03/24 07:15:36;;;;;;;;;;;;;;;;;;6176512;23;19931;-89
2022/03/24 07:18:22;;;;;;;;;;;;;;;;;;6197204;23;19943;-88
2022/03/24 07:20:50;;;;;;;;;;;;;;;;;;6176894;23;20023;-88
2022/03/24 07:23:18;;;;;;;;;;;;;;;;;;6177063;23;20340;-89
2022/03/24 07:25:51;;;;;;;;;;;;;;;;;;6176703;23;19966;-89
2022/03/24 07:28:19;;;;;;;;;;;;;;;;;;6178699;23;19924;-89
2022/03/24 07:30:50;;;;;;;;;;;;;;;;;;6178989;23;19925;-89
2022/03/24 07:33:16;;;;;;;;;;;;;;;;;;6178993;23;19920;-89
2022/03/24 07:35:43;;;;;;;;;;;;;;;;;;6178649;23;19926;-88
2022/03/24 07:38:11;;;;;;;;;;;;;;;;;;6178289;23;19920;-89
2022/03/24 07:40:38;;;;;;;;;;;;;;;;;;6178532;23;19920;-89
2022/03/24 07:43:05;;;;;;;;;;;;;;;;;;6176178;23;20396;-88
2022/03/24 07:45:38;;;;;;;;;;;;;;;;;;6177451;23;19920;-89
2022/03/24 07:48:08;;;;;;;;;;;;;;;;;;6177864;23;19920;-89
2022/03/24 07:50:44;;;;;;;;;;;;;;;;;;6177744;23;20260;-89
2022/03/24 07:53:11;;;;;;;;;;;;;;;;;;6177918;23;19916;-88
2022/03/24 07:55:40;;;;;;;;;;;;;;;;;;6177882;23;19927;-88
2022/03/24 07:58:06;;;;;;;;;;;;;;;;;;6176998;23;20218;-89
2022/03/24 08:00:33;;;;;;;;;;;;;;;;;;6178685;23;19991;-88
2022/03/24 08:03:00;;;;;;;;;;;;;;;;;;6178603;23;20002;-89
2022/03/24 08:05:28;;;;;;;;;;;;;;;;;;6177851;23;19983;-89
2022/03/24 08:07:56;;;;;;;;;;;;;;;;;;6178996;23;19931;-89
2022/03/24 08:10:43;;;;;;;;;;;;;;;;;;6152027;23;19924;-89
2022/03/24 08:13:10;;;;;;;;;;;;;;;;;;6175825;23;19920;-89
2022/03/24 08:15:37;;;;;;;;;;;;;;;;;;6126489;23;19916;-89
2022/03/24 08:18:05;;;;;;;;;;;;;;;;;;6151248;23;20007;-88
2022/03/24 08:20:32;;;;;;;;;;;;;;;;;;6125980;23;19916;-89
2022/03/24 08:23:00;;;;;;;;;;;;;;;;;;6177113;23;19920;-89
2022/03/24 08:25:27;;;;;;;;;;;;;;;;;;6150448;23;19994;-89
2022/03/24 08:27:54;;;;;;;;;;;;;;;;;;6151627;23;19963;-89
2022/03/24 08:30:21;;;;;;;;;;;;;;;;;;6151565;23;19983;-89
2022/03/24 08:32:47;;;;;;;;;;;;;;;;;;6128043;23;19924;-90
2022/03/24 08:35:20;;;;;;;;;;;;;;;;;;6128455;23;19920;-89
2022/03/24 08:37:47;;;;;;;;;;;;;;;;;;6128018;23;19994;-90
2022/03/24 08:40:15;;;;;;;;;;;;;;;;;;6127321;23;19970;-90
2022/03/24 08:42:45;;;;;;;;;;;;;;;;;;6152271;23;19920;-89
2022/03/24 08:45:12;;;;;;;;;;;;;;;;;;6151856;23;19917;-89
2022/03/24 08:47:57;;;;;;;;;;;;;;;;;;6061138;23;19925;-89
2022/03/24 08:50:25;;;;;;;;;;;;;;;;;;6035432;23;19928;-89
2022/03/24 08:52:52;;;;;;;;;;;;;;;;;;6036055;23;19917;-90
2022/03/24 08:55:19;;;;;;;;;;;;;;;;;;6085266;23;19928;-89
2022/03/24 08:57:50;;;;;;;;;;;;;;;;;;6097255;23;19925;-89
2022/03/24 09:00:29;;;;;;;;;;;;;;;;;;6053731;23;20193;-90
2022/03/24 09:02:57;;;;;;;;;;;;;;;;;;6044164;23;19921;-90
2022/03/24 09:05:29;;;;;;;;;;;;;;;;;;6044225;23;19918;-90
2022/03/24 09:07:58;;;;;;;;;;;;;;;;;;6057312;23;19925;-89
2022/03/24 09:10:43;;;;;;;;;;;;;;;;;;6055862;23;19950;-89
2022/03/24 09:13:13;;;;;;;;;;;;;;;;;;6025521;23;19921;-89
2022/03/24 09:15:40;;;;;;;;;;;;;;;;;;6053967;23;20414;-89
2022/03/24 09:18:08;;;;;;;;;;;;;;;;;;6043557;23;19916;-89
2022/03/24 09:20:35;;;;;;;;;;;;;;;;;;6116489;23;19920;-89
2022/03/24 09:23:02;;;;;;;;;;;;;;;;;;6121218;23;19921;-89
2022/03/24 09:25:29;;;;;;;;;;;;;;;;;;6097404;23;19952;-89
2022/03/24 09:27:56;;;;;;;;;;;;;;;;;;6121018;23;20373;-89
2022/03/24 09:30:24;;;;;;;;;;;;;;;;;;6092507;23;20362;-89
2022/03/24 09:32:51;;;;;;;;;;;;;;;;;;6120662;23;19979;-88
2022/03/24 09:35:19;;;;;;;;;;;;;;;;;;6117809;23;19948;-88
2022/03/24 09:37:46;;;;;;;;;;;;;;;;;;6099233;23;19929;-89
2022/03/24 09:40:27;;;;;;;;;;;;;;;;;;6083564;23;19925;-89
2022/03/24 09:42:53;;;;;;;;;;;;;;;;;;6090019;23;20341;-89
2022/03/24 09:45:19;;;;;;;;;;;;;;;;;;6090231;23;20004;-89
2022/03/24 09:47:46;;;;;;;;;;;;;;;;;;6091351;23;19925;-90
2022/03/24 09:50:14;;;;;;;;;;;;;;;;;;6091037;23;19925;-89
2022/03/24 09:52:41;;;;;;;;;;;;;;;;;;6090187;23;20013;-88
2022/03/24 09:55:09;;;;;;;;;;;;;;;;;;6091436;23;19921;-88
2022/03/24 09:57:43;;;;;;;;;;;;;;;;;;6092930;23;20342;-89
2022/03/24 10:00:10;;;;;;;;;;;;;;;;;;6105700;23;19925;-89
2022/03/24 10:02:37;;;;;;;;;;;;;;;;;;6069883;23;19932;-89
2022/03/24 10:05:06;;;;;;;;;;;;;;;;;;6070110;23;20318;-89
2022/03/24 10:07:33;;;;;;;;;;;;;;;;;;6093732;23;19972;-89
2022/03/24 10:10:02;;;;;;;;;;;;;;;;;;6070506;23;19921;-89
2022/03/24 10:12:37;;;;;;;;;;;;;;;;;;6121791;23;19952;-89
2022/03/24 10:15:05;;;;;;;;;;;;;;;;;;6150529;23;20231;-89
2022/03/24 10:17:34;;;;;;;;;;;;;;;;;;6124350;23;19968;-89
2022/03/24 10:20:05;;;;;;;;;;;;;;;;;;6123817;23;19924;-89
2022/03/24 10:22:51;;;;;;;;;;;;;;;;;;6122867;23;19920;-89
2022/03/24 10:25:18;;;;;;;;;;;;;;;;;;6123449;23;19924;-89
2022/03/24 10:27:59;;;;;;;;;;;;;;;;;;6088222;23;19944;-89
2022/03/24 10:30:25;;;;;;;;;;;;;;;;;;6113147;23;20421;-89
2022/03/24 10:32:59;;;;;;;;;;;;;;;;;;6065107;23;19957;-89
2022/03/24 10:35:26;;;;;;;;;;;;;;;;;;6088800;23;19984;-89
2022/03/24 10:37:56;;;;;;;;;;;;;;;;;;6087999;23;19925;-89
2022/03/24 10:40:24;;;;;;;;;;;;;;;;;;6084643;23;19932;-89
2022/03/24 10:42:55;;;;;;;;;;;;;;;;;;6085515;23;19984;-89
2022/03/24 10:45:21;;;;;;;;;;;;;;;;;;6027936;23;19922;-89
2022/03/24 10:47:49;;;;;;;;;;;;;;;;;;6008385;23;19929;-89
2022/03/24 10:50:16;;;;;;;;;;;;;;;;;;6006858;23;20004;-88
2022/03/24 10:52:43;;;;;;;;;;;;;;;;;;6006123;23;20362;-89
2022/03/24 10:55:10;;;;;;;;;;;;;;;;;;6006887;23;20013;-89
2022/03/24 10:57:37;;;;;;;;;;;;;;;;;;6030109;23;19993;-88
2022/03/24 11:00:04;;;;;;;;;;;;;;;;;;6074198;23;19935;-89
2022/03/24 11:02:31;;;;;;;;;;;;;;;;;;6068418;23;19917;-89
2022/03/24 11:05:17;;;;;;;;;;;;;;;;;;6112037;23;20282;-89
2022/03/24 11:07:44;;;;;;;;;;;;;;;;;;6093088;23;20374;-89
2022/03/24 11:10:11;;;;;;;;;;;;;;;;;;6092650;23;19925;-88
2022/03/24 11:12:39;;;;;;;;;;;;;;;;;;6092193;23;19927;-89
2022/03/24 11:15:08;;;;;;;;;;;;;;;;;;6088620;23;19921;-89
2022/03/24 11:17:35;;;;;;;;;;;;;;;;;;6142860;23;20333;-89
2022/03/24 11:20:03;;;;;;;;;;;;;;;;;;6178420;23;19992;-89
2022/03/24 11:22:30;;;;;;;;;;;;;;;;;;6177103;23;19924;-89
2022/03/24 11:24:56;;;;;;;;;;;;;;;;;;6178361;23;19951;-89
2022/03/24 11:27:43;;;;;;;;;;;;;;;;;;6205144;23;19927;-89
2022/03/24 11:30:10;;;;;;;;;;;;;;;;;;6181124;23;19920;-88
2022/03/24 11:32:37;;;;;;;;;;;;;;;;;;6180227;23;19982;-88
2022/03/24 11:35:04;;;;;;;;;;;;;;;;;;6206883;23;19920;-88
2022/03/24 11:37:31;;;;;;;;;;;;;;;;;;6180877;23;20291;-89
2022/03/24 11:39:59;;;;;;;;;;;;;;;;;;6179619;23;20015;-89
2022/03/24 11:42:44;;;;;;;;;;;;;;;;;;6149019;23;19932;-89
2022/03/24 11:45:12;;;;;;;;;;;;;;;;;;6147233;23;19924;-88
2022/03/24 11:47:53;;;;;;;;;;;;;;;;;;6113173;23;19924;-89
2022/03/24 11:50:20;;;;;;;;;;;;;;;;;;6115412;23;19921;-88
2022/03/24 11:52:48;;;;;;;;;;;;;;;;;;6113952;23;20010;-89
2022/03/24 11:55:30;;;;;;;;;;;;;;;;;;6084237;23;19925;-89
2022/03/24 11:57:58;;;;;;;;;;;;;;;;;;6082285;23;20343;-88
2022/03/24 12:00:43;;;;;;;;;;;;;;;;;;6063814;23;19924;-88
2022/03/24 12:03:11;;;;;;;;;;;;;;;;;;6085470;23;19921;-89
2022/03/24 12:05:40;;;;;;;;;;;;;;;;;;6064813;23;19921;-88
2022/03/24 12:08:07;;;;;;;;;;;;;;;;;;6062483;23;19925;-89
2022/03/24 12:10:35;;;;;;;;;;;;;;;;;;6086970;23;19956;-88
2022/03/24 12:13:02;;;;;;;;;;;;;;;;;;6039012;23;19921;-88
2022/03/24 12:15:29;;;;;;;;;;;;;;;;;;6087350;23;20130;-89
2022/03/24 12:17:56;;;;;;;;;;;;;;;;;;6045939;23;20365;-88
2022/03/24 12:20:26;;;;;;;;;;;;;;;;;;6120638;23;19975;-89
2022/03/24 12:22:52;;;;;;;;;;;;;;;;;;6118594;23;19987;-88
2022/03/24 12:25:22;;;;;;;;;;;;;;;;;;6116822;23;20054;-88
2022/03/24 12:27:50;;;;;;;;;;;;;;;;;;6144414;23;19948;-88
2022/03/24 12:30:17;;;;;;;;;;;;;;;;;;6118552;23;19939;-89
2022/03/24 12:32:44;;;;;;;;;;;;;;;;;;6144586;23;19927;-88
2022/03/24 12:35:10;;;;;;;;;;;;;;;;;;6143375;23;19983;-89
2022/03/24 12:37:41;;;;;;;;;;;;;;;;;;6159981;23;19924;-89
2022/03/24 12:40:21;;;;;;;;;;;;;;;;;;6083298;23;20388;-88
2022/03/24 12:42:49;;;;;;;;;;;;;;;;;;6061114;23;19963;-88
2022/03/24 12:45:14;;;;;;;;;;;;;;;;;;6058794;23;19926;-88
2022/03/24 12:47:42;;;;;;;;;;;;;;;;;;6059503;23;19925;-88
2022/03/24 12:50:09;;;;;;;;;;;;;;;;;;6061574;23;20297;-89
2022/03/24 12:52:37;;;;;;;;;;;;;;;;;;6061547;23;20033;-88
2022/03/24 12:55:04;;;;;;;;;;;;;;;;;;6060109;23;19984;-88
2022/03/24 12:57:33;;;;;;;;;;;;;;;;;;6059955;23;19921;-89
2022/03/24 13:00:00;;;;;;;;;;;;;;;;;;6037017;23;19929;-89
2022/03/24 13:02:27;;;;;;;;;;;;;;;;;;6055943;23;20294;-89
2022/03/24 13:04:56;;;;;;;;;;;;;;;;;;6055446;23;19953;-89
2022/03/24 13:07:24;;;;;;;;;;;;;;;;;;6054787;23;19961;-88
2022/03/24 13:10:05;;;;;;;;;;;;;;;;;;6026245;23;19921;-89
2022/03/24 13:12:32;;;;;;;;;;;;;;;;;;6083230;23;20274;-89
2022/03/24 13:15:00;;;;;;;;;;;;;;;;;;6061068;23;19917;-89
2022/03/24 13:17:27;;;;;;;;;;;;;;;;;;6062852;23;19957;-88
2022/03/24 13:19:56;;;;;;;;;;;;;;;;;;6086365;23;19921;-88
2022/03/24 13:22:25;;;;;;;;;;;;;;;;;;6086227;23;19996;-89
2022/03/24 13:25:11;;;;;;;;;;;;;;;;;;6059007;23;19918;-89
2022/03/24 13:27:39;;;;;;;;;;;;;;;;;;6013296;23;20398;-89
2022/03/24 13:30:07;;;;;;;;;;;;;;;;;;6043776;23;19921;-88
2022/03/24 13:32:34;;;;;;;;;;;;;;;;;;6144216;23;19920;-89
2022/03/24 13:35:01;;;;;;;;;;;;;;;;;;6146514;23;19975;-89
2022/03/24 13:37:28;;;;;;;;;;;;;;;;;;6147602;23;19923;-88
2022/03/24 13:39:55;;;;;;;;;;;;;;;;;;6146621;23;19963;-89
2022/03/24 13:42:41;;;;;;;;;;;;;;;;;;6156074;23;19926;-89
2022/03/24 13:45:10;;;;;;;;;;;;;;;;;;6177617;23;20440;-88
2022/03/24 13:47:56;;;;;;;;;;;;;;;;;;6125232;23;20704;-88
2022/03/24 13:50:23;;;;;;;;;;;;;;;;;;6124490;23;19952;-89
2022/03/24 13:52:53;;;;;;;;;;;;;;;;;;6124630;23;20076;-89
2022/03/24 13:55:20;;;;;;;;;;;;;;;;;;6123433;23;19968;-89
2022/03/24 13:57:49;;;;;;;;;;;;;;;;;;6145637;23;19923;-88
2022/03/24 14:00:17;;;;;;;;;;;;;;;;;;6120290;23;19924;-89
2022/03/24 14:02:44;;;;;;;;;;;;;;;;;;6120300;23;19924;-88
2022/03/24 14:05:13;;;;;;;;;;;;;;;;;;6120056;23;19924;-88
2022/03/24 14:07:39;;;;;;;;;;;;;;;;;;6121261;23;19921;-88
2022/03/24 14:10:06;;;;;;;;;;;;;;;;;;6120606;23;19927;-88
2022/03/24 14:12:34;;;;;;;;;;;;;;;;;;6121673;23;20408;-89
2022/03/24 14:15:02;;;;;;;;;;;;;;;;;;6120490;23;20364;-88
2022/03/24 14:17:32;;;;;;;;;;;;;;;;;;6146131;23;19978;-88
2022/03/24 14:20:08;;;;;;;;;;;;;;;;;;6142776;23;19959;-88
2022/03/24 14:22:36;;;;;;;;;;;;;;;;;;6145829;23;20566;-88
2022/03/24 14:25:03;;;;;;;;;;;;;;;;;;6121140;23;19959;-89
2022/03/24 14:27:33;;;;;;;;;;;;;;;;;;6120130;23;19931;-89
2022/03/24 14:29:59;;;;;;;;;;;;;;;;;;6058423;23;19922;-89
2022/03/24 14:32:26;;;;;;;;;;;;;;;;;;6101299;23;19932;-88
2022/03/24 14:34:54;;;;;;;;;;;;;;;;;;6089877;23;20258;-88
2022/03/24 14:37:20;;;;;;;;;;;;;;;;;;6113249;23;19928;-88
2022/03/24 14:39:48;;;;;;;;;;;;;;;;;;6088544;23;19921;-89
2022/03/24 14:42:18;;;;;;;;;;;;;;;;;;6113396;23;19921;-89
2022/03/24 14:44:44;;;;;;;;;;;;;;;;;;6091595;23;19933;-88
2022/03/24 14:47:11;;;;;;;;;;;;;;;;;;6094567;23;20028;-88
2022/03/24 14:49:38;;;;;;;;;;;;;;;;;;6094024;23;19928;-88
2022/03/24 14:52:05;;;;;;;;;;;;;;;;;;6117823;23;19944;-89
2022/03/24 14:54:32;;;;;;;;;;;;;;;;;;6117209;23;20005;-88
2022/03/24 14:56:59;;;;;;;;;;;;;;;;;;6117312;23;19921;-89
2022/03/24 14:59:25;;;;;;;;;;;;;;;;;;6089353;23;19920;-88
2022/03/24 15:01:52;;;;;;;;;;;;;;;;;;6166493;23;19927;-88
2022/03/24 15:04:19;;;;;;;;;;;;;;;;;;6182936;23;19994;-90
2022/03/24 15:06:45;;;;;;;;;;;;;;;;;;6182582;23;19916;-88
2022/03/24 15:09:13;;;;;;;;;;;;;;;;;;6179273;23;19942;-89
2022/03/24 15:11:40;;;;;;;;;;;;;;;;;;6179861;23;19919;-88
2022/03/24 15:16:55;;;;;;;;;;;;;;;;;;6179949;23;19920;-88
2022/03/24 15:19:22;;;;;;;;;;;;;;;;;;6179875;23;19916;-89
2022/03/24 15:21:49;;;;;;;;;;;;;;;;;;6180413;23;19920;-89
2022/03/24 15:24:16;;;;;;;;;;;;;;;;;;6182054;23;19970;-89
2022/03/24 15:26:44;;;;;;;;;;;;;;;;;;6210949;23;19939;-88
2022/03/24 15:29:11;;;;;;;;;;;;;;;;;;6211127;23;19994;-88
2022/03/24 15:31:44;;;;;;;;;;;;;;;;;;6184643;23;20229;-88
2022/03/24 15:34:10;;;;;;;;;;;;;;;;;;6183761;23;19939;-88
2022/03/24 15:36:36;;;;;;;;;;;;;;;;;;6185100;23;20320;-88
2022/03/24 15:39:03;;;;;;;;;;;;;;;;;;6184047;23;20336;-88
2022/03/24 15:41:32;;;;;;;;;;;;;;;;;;6184610;23;19939;-89
2022/03/24 15:44:00;;;;;;;;;;;;;;;;;;6184422;23;19939;-88
2022/03/24 15:46:27;;;;;;;;;;;;;;;;;;6181802;23;19939;-88
2022/03/24 15:48:53;;;;;;;;;;;;;;;;;;6182438;23;19939;-89
2022/03/24 15:51:21;;;;;;;;;;;;;;;;;;6180907;23;19952;-88
2022/03/24 15:54:08;;;;;;;;;;;;;;;;;;6150792;23;19923;-89
2022/03/24 15:56:37;;;;;;;;;;;;;;;;;;6123505;23;19923;-88
2022/03/24 15:59:06;;;;;;;;;;;;;;;;;;6143684;23;19948;-89
2022/03/24 16:01:33;;;;;;;;;;;;;;;;;;6118194;23;19924;-89
2022/03/24 16:04:00;;;;;;;;;;;;;;;;;;6143928;23;19990;-89
2022/03/24 16:06:27;;;;;;;;;;;;;;;;;;6143961;23;19939;-89
2022/03/24 16:08:53;;;;;;;;;;;;;;;;;;6122543;23;19924;-90
2022/03/24 16:11:20;;;;;;;;;;;;;;;;;;6148392;23;20463;-89
2022/03/24 16:13:46;;;;;;;;;;;;;;;;;;6122784;23;20178;-89
2022/03/24 16:16:14;;;;;;;;;;;;;;;;;;6146854;23;20415;-89
2022/03/24 16:18:42;;;;;;;;;;;;;;;;;;6146851;23;19920;-89
2022/03/24 16:21:09;;;;;;;;;;;;;;;;;;6145405;23;20395;-89
2022/03/24 16:23:45;;;;;;;;;;;;;;;;;;6146281;23;20385;-89
2022/03/24 16:26:13;;;;;;;;;;;;;;;;;;6123707;23;20337;-89
2022/03/24 16:28:55;;;;;;;;;;;;;;;;;;6153789;23;19974;-89
2022/03/24 16:31:22;;;;;;;;;;;;;;;;;;6126828;23;20002;-89
2022/03/24 16:33:49;;;;;;;;;;;;;;;;;;6150161;23;19927;-89
2022/03/24 16:36:16;;;;;;;;;;;;;;;;;;6123982;23;19924;-88
2022/03/24 16:38:42;;;;;;;;;;;;;;;;;;6175538;23;19928;-89
2022/03/24 16:41:09;;;;;;;;;;;;;;;;;;6150949;23;19920;-89
2022/03/24 16:43:37;;;;;;;;;;;;;;;;;;6149625;23;20273;-89
2022/03/24 16:46:04;;;;;;;;;;;;;;;;;;6147950;23;19927;-88
2022/03/24 16:48:30;;;;;;;;;;;;;;;;;;6121720;23;19975;-87
2022/03/24 16:50:57;;;;;;;;;;;;;;;;;;6146877;23;20019;-88
2022/03/24 16:53:25;;;;;;;;;;;;;;;;;;6123170;23;19991;-88
2022/03/24 16:55:52;;;;;;;;;;;;;;;;;;6171606;23;19971;-88
2022/03/24 16:58:18;;;;;;;;;;;;;;;;;;6121161;23;20338;-88
2022/03/24 17:00:45;;;;;;;;;;;;;;;;;;6101809;23;19941;-88